DKH147 ZLDH-ZLXY
Flight info
| Callsign | DKH147 |
|---|---|
| Flight time | 1h 48m |
| Altitude | 351 |
| Route | VIKUP W191 DNC W565 BIGUX W214 HO |
| Aircraft | A321/M-SDE2E3GHIJ3J4J5LM1ORWXY/LB1D1 |
Departure
| Time | 2026-05-05 12:12 |
|---|---|
| Airport | Dunhuang Mogao International Airport (ZLDH) |
Arrival
| Time | 2026-05-05 14:00 |
|---|---|
| Airport | Xi'an Xianyang International Airport (ZLXY) |
| Time | Latitude | Longitude | Altitude | Speed | Heading |
|---|---|---|---|---|---|
| 2026-05-05 11:55 | 40.16475 | 94.80901 | 3689 ft | 0 kts | 354° |
| 2026-05-05 12:02 | 40.16473 | 94.80901 | 3686 ft | 2 kts | 354° |
| 2026-05-05 12:02 | 40.16448 | 94.80908 | 3697 ft | 4 kts | 331° |
| 2026-05-05 12:02 | 40.16428 | 94.80930 | 3702 ft | 4 kts | 295° |
| 2026-05-05 12:03 | 40.16424 | 94.80952 | 3701 ft | 0 kts | 264° |
| 2026-05-05 12:05 | 40.16424 | 94.80948 | 3701 ft | 2 kts | 264° |
| 2026-05-05 12:05 | 40.16421 | 94.80911 | 3700 ft | 6 kts | 263° |
| 2026-05-05 12:05 | 40.16415 | 94.80840 | 3694 ft | 9 kts | 263° |
| 2026-05-05 12:05 | 40.16408 | 94.80757 | 3694 ft | 9 kts | 264° |
| 2026-05-05 12:06 | 40.16402 | 94.80688 | 3693 ft | 6 kts | 261° |
| 2026-05-05 12:06 | 40.16375 | 94.80660 | 3695 ft | 5 kts | 194° |
| 2026-05-05 12:06 | 40.16338 | 94.80666 | 3694 ft | 6 kts | 172° |
| 2026-05-05 12:06 | 40.16292 | 94.80672 | 3694 ft | 7 kts | 175° |
| 2026-05-05 12:07 | 40.16236 | 94.80679 | 3692 ft | 9 kts | 175° |
| 2026-05-05 12:07 | 40.16163 | 94.80682 | 3690 ft | 10 kts | 199° |
| 2026-05-05 12:07 | 40.16142 | 94.80606 | 3690 ft | 9 kts | 261° |
| 2026-05-05 12:07 | 40.16134 | 94.80524 | 3690 ft | 9 kts | 265° |
| 2026-05-05 12:08 | 40.16129 | 94.80444 | 3692 ft | 9 kts | 267° |
| 2026-05-05 12:08 | 40.16125 | 94.80359 | 3689 ft | 10 kts | 265° |
| 2026-05-05 12:08 | 40.16119 | 94.80261 | 3688 ft | 12 kts | 265° |
| 2026-05-05 12:08 | 40.16111 | 94.80146 | 3686 ft | 13 kts | 265° |
| 2026-05-05 12:09 | 40.16100 | 94.80025 | 3686 ft | 14 kts | 262° |
| 2026-05-05 12:09 | 40.16088 | 94.79901 | 3685 ft | 14 kts | 264° |
| 2026-05-05 12:09 | 40.16077 | 94.79770 | 3685 ft | 15 kts | 264° |
| 2026-05-05 12:09 | 40.16067 | 94.79646 | 3685 ft | 13 kts | 264° |
| 2026-05-05 12:10 | 40.16060 | 94.79534 | 3686 ft | 12 kts | 265° |
| 2026-05-05 12:10 | 40.16082 | 94.79438 | 3686 ft | 10 kts | 293° |
| 2026-05-05 12:10 | 40.16103 | 94.79367 | 3688 ft | 7 kts | 282° |
| 2026-05-05 12:10 | 40.16099 | 94.79309 | 3688 ft | 6 kts | 263° |
| 2026-05-05 12:11 | 40.16070 | 94.79269 | 3686 ft | 8 kts | 188° |
| 2026-05-05 12:11 | 40.16030 | 94.79302 | 3686 ft | 5 kts | 94° |
| 2026-05-05 12:11 | 40.16042 | 94.79348 | 3685 ft | 6 kts | 72° |
| 2026-05-05 12:11 | 40.16050 | 94.79408 | 3685 ft | 7 kts | 85° |
| 2026-05-05 12:12 | 40.16052 | 94.79450 | 3685 ft | 0 kts | 85° |
| 2026-05-05 12:12 | 40.16060 | 94.79554 | 3684 ft | 39 kts | 84° |
| 2026-05-05 12:12 | 40.16114 | 94.80203 | 3687 ft | 102 kts | 84° |
| 2026-05-05 12:12 | 40.16208 | 94.81362 | 3690 ft | 152 kts | 84° |
| 2026-05-05 12:13 | 40.16326 | 94.82911 | 3703 ft | 189 kts | 77° |
| 2026-05-05 12:13 | 40.16441 | 94.84661 | 4121 ft | 194 kts | 81° |
| 2026-05-05 12:13 | 40.16572 | 94.86397 | 4664 ft | 191 kts | 77° |
| 2026-05-05 12:13 | 40.16717 | 94.88159 | 4927 ft | 201 kts | 77° |
| 2026-05-05 12:14 | 40.16877 | 94.90043 | 5067 ft | 217 kts | 79° |
| 2026-05-05 12:14 | 40.17046 | 94.92069 | 5176 ft | 234 kts | 79° |
| 2026-05-05 12:14 | 40.17231 | 94.94287 | 5288 ft | 258 kts | 78° |
| 2026-05-05 12:14 | 40.17424 | 94.96691 | 5725 ft | 269 kts | 79° |
| 2026-05-05 12:15 | 40.17611 | 94.99154 | 6287 ft | 276 kts | 81° |
| 2026-05-05 12:15 | 40.17797 | 95.01673 | 6898 ft | 280 kts | 82° |
| 2026-05-05 12:15 | 40.17984 | 95.04205 | 7595 ft | 281 kts | 79° |
| 2026-05-05 12:15 | 40.18161 | 95.06772 | 8192 ft | 288 kts | 85° |
| 2026-05-05 12:16 | 40.17789 | 95.09361 | 8784 ft | 297 kts | 113° |
| 2026-05-05 12:16 | 40.16558 | 95.11550 | 9395 ft | 304 kts | 139° |
| 2026-05-05 12:16 | 40.14694 | 95.12832 | 10001 ft | 307 kts | 167° |
| 2026-05-05 12:16 | 40.12534 | 95.13242 | 10326 ft | 323 kts | 173° |
| 2026-05-05 12:17 | 40.10224 | 95.13553 | 10453 ft | 345 kts | 174° |
| 2026-05-05 12:17 | 40.07786 | 95.13853 | 10827 ft | 357 kts | 174° |
| 2026-05-05 12:17 | 40.05298 | 95.14153 | 11457 ft | 360 kts | 174° |
| 2026-05-05 12:17 | 40.02784 | 95.14461 | 12061 ft | 365 kts | 174° |
| 2026-05-05 12:18 | 40.00253 | 95.14778 | 12786 ft | 366 kts | 174° |
| 2026-05-05 12:18 | 39.97708 | 95.15126 | 13416 ft | 370 kts | 170° |
| 2026-05-05 12:18 | 39.95221 | 95.16015 | 14005 ft | 372 kts | 156° |
| 2026-05-05 12:18 | 39.92967 | 95.17651 | 14619 ft | 372 kts | 143° |
| 2026-05-05 12:19 | 39.91065 | 95.19934 | 15256 ft | 374 kts | 128° |
| 2026-05-05 12:19 | 39.89612 | 95.22749 | 15741 ft | 377 kts | 115° |
| 2026-05-05 12:19 | 39.88456 | 95.25829 | 16283 ft | 380 kts | 114° |
| 2026-05-05 12:19 | 39.87306 | 95.28895 | 16856 ft | 383 kts | 115° |
| 2026-05-05 12:20 | 39.86109 | 95.32067 | 17391 ft | 388 kts | 114° |
| 2026-05-05 12:20 | 39.84910 | 95.35235 | 17958 ft | 391 kts | 115° |
| 2026-05-05 12:20 | 39.83716 | 95.38376 | 18447 ft | 394 kts | 115° |
| 2026-05-05 12:20 | 39.82492 | 95.41590 | 18911 ft | 398 kts | 115° |
| 2026-05-05 12:21 | 39.81260 | 95.44831 | 19395 ft | 402 kts | 115° |
| 2026-05-05 12:21 | 39.80017 | 95.48101 | 19855 ft | 405 kts | 115° |
| 2026-05-05 12:21 | 39.78762 | 95.51399 | 20305 ft | 409 kts | 115° |
| 2026-05-05 12:21 | 39.77495 | 95.54726 | 20728 ft | 413 kts | 115° |
| 2026-05-05 12:22 | 39.76217 | 95.58088 | 21166 ft | 416 kts | 115° |
| 2026-05-05 12:22 | 39.74936 | 95.61480 | 21580 ft | 420 kts | 115° |
| 2026-05-05 12:22 | 39.73646 | 95.64904 | 21978 ft | 424 kts | 115° |
| 2026-05-05 12:22 | 39.72344 | 95.68355 | 22380 ft | 427 kts | 115° |
| 2026-05-05 12:23 | 39.71026 | 95.71838 | 22791 ft | 431 kts | 115° |
| 2026-05-05 12:23 | 39.69701 | 95.75335 | 23281 ft | 433 kts | 116° |
| 2026-05-05 12:23 | 39.68370 | 95.78847 | 23665 ft | 435 kts | 116° |
| 2026-05-05 12:23 | 39.67030 | 95.82386 | 23995 ft | 438 kts | 116° |
| 2026-05-05 12:24 | 39.65684 | 95.85939 | 24315 ft | 441 kts | 116° |
| 2026-05-05 12:24 | 39.64327 | 95.89517 | 24646 ft | 443 kts | 117° |
| 2026-05-05 12:24 | 39.62961 | 95.93112 | 24997 ft | 445 kts | 117° |
| 2026-05-05 12:24 | 39.61590 | 95.96708 | 25366 ft | 446 kts | 117° |
| 2026-05-05 12:25 | 39.60207 | 96.00324 | 25696 ft | 449 kts | 117° |
| 2026-05-05 12:25 | 39.58815 | 96.03956 | 26059 ft | 451 kts | 117° |
| 2026-05-05 12:25 | 39.57416 | 96.07603 | 26388 ft | 453 kts | 118° |
| 2026-05-05 12:25 | 39.56009 | 96.11269 | 26732 ft | 455 kts | 118° |
| 2026-05-05 12:26 | 39.54586 | 96.14934 | 27053 ft | 457 kts | 118° |
| 2026-05-05 12:26 | 39.53140 | 96.18611 | 27367 ft | 459 kts | 119° |
| 2026-05-05 12:26 | 39.51675 | 96.22303 | 27655 ft | 462 kts | 119° |
| 2026-05-05 12:26 | 39.50204 | 96.26003 | 27957 ft | 464 kts | 119° |
| 2026-05-05 12:27 | 39.48739 | 96.29689 | 28261 ft | 467 kts | 119° |
| 2026-05-05 12:27 | 39.47230 | 96.33491 | 28554 ft | 470 kts | 120° |
| 2026-05-05 12:27 | 39.45752 | 96.37209 | 28819 ft | 473 kts | 120° |
| 2026-05-05 12:27 | 39.44244 | 96.41002 | 29103 ft | 475 kts | 120° |
| 2026-05-05 12:28 | 39.42727 | 96.44806 | 29364 ft | 477 kts | 120° |
| 2026-05-05 12:28 | 39.41202 | 96.48634 | 29614 ft | 480 kts | 120° |
| 2026-05-05 12:28 | 39.39671 | 96.52478 | 29894 ft | 482 kts | 120° |
| 2026-05-05 12:28 | 39.38132 | 96.56344 | 30133 ft | 485 kts | 121° |
| 2026-05-05 12:29 | 39.36590 | 96.60217 | 30353 ft | 487 kts | 121° |
| 2026-05-05 12:29 | 39.35031 | 96.64117 | 30597 ft | 488 kts | 121° |
| 2026-05-05 12:29 | 39.33471 | 96.68009 | 30846 ft | 489 kts | 121° |
| 2026-05-05 12:29 | 39.31907 | 96.71910 | 31195 ft | 488 kts | 121° |
| 2026-05-05 12:30 | 39.30352 | 96.75795 | 31553 ft | 487 kts | 121° |
| 2026-05-05 12:30 | 39.28796 | 96.79683 | 31913 ft | 485 kts | 121° |
| 2026-05-05 12:30 | 39.27249 | 96.83542 | 32281 ft | 484 kts | 121° |
| 2026-05-05 12:30 | 39.25700 | 96.87400 | 32537 ft | 485 kts | 122° |
| 2026-05-05 12:31 | 39.24158 | 96.91273 | 32809 ft | 486 kts | 121° |
| 2026-05-05 12:31 | 39.22623 | 96.95155 | 33129 ft | 486 kts | 121° |
| 2026-05-05 12:31 | 39.21094 | 96.99036 | 33469 ft | 485 kts | 121° |
| 2026-05-05 12:31 | 39.19569 | 97.02906 | 33837 ft | 485 kts | 121° |
| 2026-05-05 12:32 | 39.18042 | 97.06775 | 34175 ft | 484 kts | 122° |
| 2026-05-05 12:32 | 39.16513 | 97.10639 | 34494 ft | 483 kts | 122° |
| 2026-05-05 12:32 | 39.14987 | 97.14484 | 34759 ft | 482 kts | 122° |
| 2026-05-05 12:32 | 39.13457 | 97.18325 | 35037 ft | 481 kts | 122° |
| 2026-05-05 12:33 | 39.11926 | 97.22154 | 35145 ft | 481 kts | 123° |
| 2026-05-05 12:33 | 39.10403 | 97.25956 | 35188 ft | 477 kts | 123° |
| 2026-05-05 12:33 | 39.07306 | 97.33661 | 35190 ft | 489 kts | 123° |
| 2026-05-05 12:34 | 39.04180 | 97.41461 | 35211 ft | 492 kts | 123° |
| 2026-05-05 12:34 | 39.01061 | 97.49247 | 35192 ft | 492 kts | 123° |
| 2026-05-05 12:35 | 38.97903 | 97.57063 | 35202 ft | 492 kts | 123° |
| 2026-05-05 12:35 | 38.94735 | 97.64871 | 35187 ft | 494 kts | 123° |
| 2026-05-05 12:36 | 38.91557 | 97.72721 | 35183 ft | 495 kts | 123° |
| 2026-05-05 12:36 | 38.88381 | 97.80546 | 35181 ft | 496 kts | 123° |
| 2026-05-05 12:37 | 38.85181 | 97.88386 | 35148 ft | 496 kts | 123° |
| 2026-05-05 12:37 | 38.82515 | 97.94891 | 35166 ft | 496 kts | 123° |
| 2026-05-05 12:38 | 38.79298 | 98.02735 | 35159 ft | 498 kts | 123° |
| 2026-05-05 12:38 | 38.76060 | 98.10600 | 35156 ft | 500 kts | 123° |
| 2026-05-05 12:39 | 38.72808 | 98.18483 | 35154 ft | 501 kts | 123° |
| 2026-05-05 12:39 | 38.69558 | 98.26384 | 35163 ft | 502 kts | 123° |
| 2026-05-05 12:40 | 38.66283 | 98.34297 | 35171 ft | 502 kts | 123° |
| 2026-05-05 12:40 | 38.62988 | 98.42229 | 35183 ft | 509 kts | 123° |
| 2026-05-05 12:41 | 38.59643 | 98.50253 | 35184 ft | 512 kts | 123° |
| 2026-05-05 12:41 | 38.56295 | 98.58285 | 35185 ft | 512 kts | 123° |
| 2026-05-05 12:42 | 38.52935 | 98.66317 | 35186 ft | 513 kts | 123° |
| 2026-05-05 12:42 | 38.49562 | 98.74337 | 35161 ft | 513 kts | 123° |
| 2026-05-05 12:43 | 38.46188 | 98.82369 | 35158 ft | 514 kts | 123° |
| 2026-05-05 12:43 | 38.42854 | 98.90321 | 35162 ft | 514 kts | 123° |
| 2026-05-05 12:44 | 38.39450 | 98.98345 | 35165 ft | 515 kts | 123° |
| 2026-05-05 12:44 | 38.36045 | 99.06369 | 35166 ft | 515 kts | 123° |
| 2026-05-05 12:45 | 38.32637 | 99.14388 | 35144 ft | 515 kts | 123° |
| 2026-05-05 12:45 | 38.29220 | 99.22408 | 35115 ft | 515 kts | 123° |
| 2026-05-05 12:46 | 38.25794 | 99.30419 | 35122 ft | 515 kts | 123° |
| 2026-05-05 12:46 | 38.22369 | 99.38427 | 35128 ft | 515 kts | 123° |
| 2026-05-05 12:47 | 38.18963 | 99.46366 | 35119 ft | 515 kts | 123° |
| 2026-05-05 12:47 | 38.15531 | 99.54372 | 35108 ft | 516 kts | 123° |
| 2026-05-05 12:48 | 38.12072 | 99.62352 | 35113 ft | 516 kts | 123° |
| 2026-05-05 12:48 | 38.08616 | 99.70339 | 35109 ft | 516 kts | 123° |
| 2026-05-05 12:49 | 38.05174 | 99.78340 | 35111 ft | 517 kts | 123° |
| 2026-05-05 12:49 | 38.01716 | 99.86332 | 35095 ft | 517 kts | 124° |
| 2026-05-05 12:50 | 37.98229 | 99.94287 | 35089 ft | 516 kts | 124° |
| 2026-05-05 12:50 | 37.94749 | 100.02239 | 35081 ft | 516 kts | 124° |
| 2026-05-05 12:51 | 37.91272 | 100.10168 | 35102 ft | 516 kts | 124° |
| 2026-05-05 12:51 | 37.87784 | 100.18115 | 35078 ft | 516 kts | 124° |
| 2026-05-05 12:52 | 37.84291 | 100.26047 | 35071 ft | 516 kts | 123° |
| 2026-05-05 12:52 | 37.80811 | 100.33939 | 35063 ft | 517 kts | 123° |
| 2026-05-05 12:53 | 37.77304 | 100.41885 | 35071 ft | 517 kts | 123° |
| 2026-05-05 12:53 | 37.73784 | 100.49829 | 35070 ft | 518 kts | 123° |
| 2026-05-05 12:54 | 37.68533 | 100.61646 | 35056 ft | 518 kts | 123° |
| 2026-05-05 12:55 | 37.64998 | 100.69565 | 35064 ft | 518 kts | 123° |
| 2026-05-05 12:55 | 37.61567 | 100.77567 | 35073 ft | 519 kts | 121° |
| 2026-05-05 12:56 | 37.58253 | 100.85619 | 35053 ft | 519 kts | 121° |
| 2026-05-05 12:56 | 37.54902 | 100.93685 | 35045 ft | 519 kts | 121° |
| 2026-05-05 12:57 | 37.51498 | 101.01693 | 35041 ft | 519 kts | 122° |
| 2026-05-05 12:57 | 37.48066 | 101.09695 | 35046 ft | 520 kts | 122° |
| 2026-05-05 12:58 | 37.44663 | 101.17709 | 35031 ft | 520 kts | 122° |
| 2026-05-05 12:58 | 37.41258 | 101.25737 | 35008 ft | 519 kts | 122° |
| 2026-05-05 12:59 | 37.37849 | 101.33747 | 35013 ft | 519 kts | 122° |
| 2026-05-05 12:59 | 37.34435 | 101.41654 | 34993 ft | 519 kts | 122° |
| 2026-05-05 13:00 | 37.29522 | 101.53816 | 34995 ft | 523 kts | 111° |
| 2026-05-05 13:01 | 37.25479 | 101.71423 | 35005 ft | 525 kts | 108° |
| 2026-05-05 13:01 | 37.23437 | 101.80227 | 35019 ft | 526 kts | 108° |
| 2026-05-05 13:02 | 37.21394 | 101.89054 | 35019 ft | 526 kts | 108° |
| 2026-05-05 13:02 | 37.19358 | 101.97873 | 35005 ft | 526 kts | 108° |
| 2026-05-05 13:03 | 37.17310 | 102.06695 | 35028 ft | 527 kts | 108° |
| 2026-05-05 13:03 | 37.15266 | 102.15515 | 35026 ft | 527 kts | 108° |
| 2026-05-05 13:04 | 37.13204 | 102.24336 | 35062 ft | 527 kts | 108° |
| 2026-05-05 13:04 | 37.10727 | 102.32932 | 35045 ft | 521 kts | 120° |
| 2026-05-05 13:05 | 37.06963 | 102.40660 | 35065 ft | 520 kts | 125° |
| 2026-05-05 13:05 | 37.03137 | 102.48344 | 35047 ft | 520 kts | 125° |
| 2026-05-05 13:06 | 36.99333 | 102.55967 | 35058 ft | 519 kts | 125° |
| 2026-05-05 13:06 | 36.95469 | 102.63669 | 35068 ft | 520 kts | 125° |
| 2026-05-05 13:07 | 36.91654 | 102.71273 | 35043 ft | 520 kts | 125° |
| 2026-05-05 13:07 | 36.87802 | 102.78926 | 35048 ft | 520 kts | 125° |
| 2026-05-05 13:08 | 36.83945 | 102.86571 | 35032 ft | 521 kts | 125° |
| 2026-05-05 13:08 | 36.80349 | 102.94432 | 34989 ft | 524 kts | 118° |
| 2026-05-05 13:09 | 36.77199 | 103.02622 | 34991 ft | 524 kts | 118° |
| 2026-05-05 13:09 | 36.74026 | 103.10824 | 34968 ft | 525 kts | 118° |
| 2026-05-05 13:10 | 36.70837 | 103.19015 | 34958 ft | 526 kts | 118° |
| 2026-05-05 13:10 | 36.67642 | 103.27211 | 34928 ft | 527 kts | 117° |
| 2026-05-05 13:11 | 36.64445 | 103.35420 | 34933 ft | 527 kts | 117° |
| 2026-05-05 13:11 | 36.61242 | 103.43619 | 34938 ft | 527 kts | 118° |
| 2026-05-05 13:12 | 36.58014 | 103.51832 | 34933 ft | 527 kts | 117° |
| 2026-05-05 13:12 | 36.54794 | 103.60004 | 34981 ft | 526 kts | 117° |
| 2026-05-05 13:13 | 36.51396 | 103.68047 | 34984 ft | 525 kts | 122° |
| 2026-05-05 13:13 | 36.47672 | 103.75829 | 34979 ft | 524 kts | 123° |
| 2026-05-05 13:14 | 36.43895 | 103.83567 | 34958 ft | 524 kts | 123° |
| 2026-05-05 13:14 | 36.40222 | 103.91321 | 34916 ft | 525 kts | 122° |
| 2026-05-05 13:15 | 36.36576 | 103.99143 | 34889 ft | 525 kts | 122° |
| 2026-05-05 13:15 | 36.32900 | 104.06985 | 34886 ft | 526 kts | 122° |
| 2026-05-05 13:16 | 36.29202 | 104.14812 | 34891 ft | 526 kts | 122° |
| 2026-05-05 13:16 | 36.25491 | 104.22629 | 34898 ft | 525 kts | 122° |
| 2026-05-05 13:17 | 36.21783 | 104.30420 | 34905 ft | 525 kts | 122° |
| 2026-05-05 13:17 | 36.18075 | 104.38201 | 34906 ft | 525 kts | 122° |
| 2026-05-05 13:18 | 36.14365 | 104.45980 | 34919 ft | 525 kts | 122° |
| 2026-05-05 13:18 | 36.10651 | 104.53748 | 34913 ft | 525 kts | 123° |
| 2026-05-05 13:19 | 36.06921 | 104.61524 | 34888 ft | 526 kts | 122° |
| 2026-05-05 13:19 | 36.03186 | 104.69300 | 34885 ft | 527 kts | 122° |
| 2026-05-05 13:20 | 35.99460 | 104.77052 | 34891 ft | 528 kts | 122° |
| 2026-05-05 13:20 | 35.95695 | 104.84846 | 34903 ft | 529 kts | 123° |
| 2026-05-05 13:21 | 35.91926 | 104.92627 | 34909 ft | 528 kts | 122° |
| 2026-05-05 13:21 | 35.88155 | 105.00404 | 34900 ft | 529 kts | 122° |
| 2026-05-05 13:22 | 35.84393 | 105.08208 | 34897 ft | 529 kts | 122° |
| 2026-05-05 13:22 | 35.80637 | 105.16017 | 34897 ft | 530 kts | 122° |
| 2026-05-05 13:23 | 35.76865 | 105.23817 | 34881 ft | 530 kts | 122° |
| 2026-05-05 13:23 | 35.73077 | 105.31601 | 34889 ft | 530 kts | 122° |
| 2026-05-05 13:24 | 35.69283 | 105.39383 | 34897 ft | 530 kts | 122° |
| 2026-05-05 13:24 | 35.66141 | 105.45836 | 34899 ft | 530 kts | 122° |
| 2026-05-05 13:25 | 35.61735 | 105.54867 | 34897 ft | 530 kts | 122° |
| 2026-05-05 13:25 | 35.57940 | 105.62621 | 34899 ft | 530 kts | 123° |
| 2026-05-05 13:26 | 35.54784 | 105.69155 | 34897 ft | 531 kts | 118° |
| 2026-05-05 13:26 | 35.52151 | 105.79142 | 34894 ft | 530 kts | 99° |
| 2026-05-05 13:27 | 35.51058 | 105.86547 | 34894 ft | 531 kts | 99° |
| 2026-05-05 13:27 | 35.49724 | 105.95456 | 34891 ft | 531 kts | 99° |
| 2026-05-05 13:28 | 35.48365 | 106.04421 | 34892 ft | 531 kts | 99° |
| 2026-05-05 13:28 | 35.47025 | 106.13274 | 34887 ft | 532 kts | 99° |
| 2026-05-05 13:29 | 35.45655 | 106.22253 | 34868 ft | 531 kts | 99° |
| 2026-05-05 13:29 | 35.44293 | 106.31165 | 34877 ft | 532 kts | 99° |
| 2026-05-05 13:30 | 35.42930 | 106.40026 | 34867 ft | 532 kts | 100° |
| 2026-05-05 13:30 | 35.41543 | 106.48945 | 34856 ft | 533 kts | 100° |
| 2026-05-05 13:31 | 35.40155 | 106.57886 | 34854 ft | 533 kts | 100° |
| 2026-05-05 13:31 | 35.38768 | 106.66820 | 34843 ft | 534 kts | 100° |
| 2026-05-05 13:32 | 35.37380 | 106.75696 | 34850 ft | 533 kts | 100° |
| 2026-05-05 13:32 | 35.35964 | 106.84610 | 34835 ft | 533 kts | 100° |
| 2026-05-05 13:33 | 35.35257 | 106.89041 | 34685 ft | 525 kts | 100° |
| 2026-05-05 13:33 | 35.34566 | 106.93380 | 34444 ft | 514 kts | 100° |
| 2026-05-05 13:33 | 35.33886 | 106.97654 | 34204 ft | 508 kts | 100° |
| 2026-05-05 13:33 | 35.33210 | 107.01896 | 33977 ft | 507 kts | 100° |
| 2026-05-05 13:34 | 35.32535 | 107.06132 | 33756 ft | 507 kts | 100° |
| 2026-05-05 13:34 | 35.31860 | 107.10375 | 33502 ft | 507 kts | 100° |
| 2026-05-05 13:34 | 35.31186 | 107.14615 | 33242 ft | 507 kts | 100° |
| 2026-05-05 13:34 | 35.30509 | 107.18867 | 32987 ft | 508 kts | 100° |
| 2026-05-05 13:35 | 35.29831 | 107.23101 | 32728 ft | 508 kts | 101° |
| 2026-05-05 13:35 | 35.29149 | 107.27342 | 32475 ft | 507 kts | 101° |
| 2026-05-05 13:35 | 35.28466 | 107.31566 | 32222 ft | 505 kts | 101° |
| 2026-05-05 13:35 | 35.27782 | 107.35771 | 31974 ft | 503 kts | 101° |
| 2026-05-05 13:36 | 35.27099 | 107.39963 | 31729 ft | 501 kts | 101° |
| 2026-05-05 13:36 | 35.26424 | 107.44107 | 31487 ft | 497 kts | 101° |
| 2026-05-05 13:36 | 35.25747 | 107.48246 | 31252 ft | 494 kts | 101° |
| 2026-05-05 13:36 | 35.25081 | 107.52351 | 31002 ft | 491 kts | 101° |
| 2026-05-05 13:37 | 35.24412 | 107.56449 | 30765 ft | 490 kts | 101° |
| 2026-05-05 13:37 | 35.23740 | 107.60513 | 30489 ft | 486 kts | 102° |
| 2026-05-05 13:37 | 35.23068 | 107.64559 | 29944 ft | 484 kts | 102° |
| 2026-05-05 13:37 | 35.22392 | 107.68588 | 29345 ft | 482 kts | 102° |
| 2026-05-05 13:38 | 35.21621 | 107.72553 | 28812 ft | 477 kts | 109° |
| 2026-05-05 13:38 | 35.20388 | 107.76284 | 28281 ft | 470 kts | 119° |
| 2026-05-05 13:38 | 35.18699 | 107.79670 | 27758 ft | 463 kts | 129° |
| 2026-05-05 13:38 | 35.16633 | 107.82639 | 27241 ft | 456 kts | 136° |
| 2026-05-05 13:39 | 35.14484 | 107.85471 | 26749 ft | 452 kts | 136° |
| 2026-05-05 13:39 | 35.12360 | 107.88288 | 26254 ft | 449 kts | 135° |
| 2026-05-05 13:39 | 35.10262 | 107.91078 | 25781 ft | 444 kts | 135° |
| 2026-05-05 13:39 | 35.08183 | 107.93845 | 25310 ft | 440 kts | 135° |
| 2026-05-05 13:40 | 35.06139 | 107.96562 | 25056 ft | 429 kts | 135° |
| 2026-05-05 13:40 | 35.04129 | 107.99227 | 24692 ft | 423 kts | 135° |
| 2026-05-05 13:40 | 35.02146 | 108.01847 | 24281 ft | 418 kts | 135° |
| 2026-05-05 13:40 | 35.00177 | 108.04441 | 23759 ft | 417 kts | 135° |
| 2026-05-05 13:41 | 34.98209 | 108.07035 | 23305 ft | 415 kts | 135° |
| 2026-05-05 13:41 | 34.96262 | 108.09603 | 22779 ft | 411 kts | 135° |
| 2026-05-05 13:41 | 34.94329 | 108.12155 | 22263 ft | 408 kts | 135° |
| 2026-05-05 13:41 | 34.92410 | 108.14687 | 21753 ft | 405 kts | 135° |
| 2026-05-05 13:42 | 34.90508 | 108.17191 | 21253 ft | 402 kts | 135° |
| 2026-05-05 13:42 | 34.88616 | 108.19680 | 20749 ft | 399 kts | 135° |
| 2026-05-05 13:42 | 34.86736 | 108.22149 | 20284 ft | 396 kts | 135° |
| 2026-05-05 13:42 | 34.84873 | 108.24595 | 19779 ft | 393 kts | 135° |
| 2026-05-05 13:43 | 34.83019 | 108.27029 | 19226 ft | 393 kts | 135° |
| 2026-05-05 13:43 | 34.81159 | 108.29471 | 18654 ft | 393 kts | 134° |
| 2026-05-05 13:43 | 34.79324 | 108.31881 | 18094 ft | 393 kts | 134° |
| 2026-05-05 13:43 | 34.77482 | 108.34297 | 17460 ft | 393 kts | 134° |
| 2026-05-05 13:44 | 34.75628 | 108.36727 | 16796 ft | 377 kts | 134° |
| 2026-05-05 13:44 | 34.73883 | 108.39011 | 16177 ft | 360 kts | 135° |
| 2026-05-05 13:44 | 34.72233 | 108.41167 | 15571 ft | 346 kts | 135° |
| 2026-05-05 13:44 | 34.70622 | 108.43267 | 14964 ft | 334 kts | 135° |
| 2026-05-05 13:45 | 34.69067 | 108.45293 | 14368 ft | 323 kts | 135° |
| 2026-05-05 13:45 | 34.67554 | 108.47266 | 13792 ft | 314 kts | 135° |
| 2026-05-05 13:45 | 34.66087 | 108.49183 | 13181 ft | 306 kts | 135° |
| 2026-05-05 13:45 | 34.64648 | 108.51058 | 12450 ft | 302 kts | 135° |
| 2026-05-05 13:46 | 34.63219 | 108.52920 | 11702 ft | 299 kts | 135° |
| 2026-05-05 13:46 | 34.61808 | 108.54759 | 10979 ft | 296 kts | 135° |
| 2026-05-05 13:46 | 34.60410 | 108.56576 | 10253 ft | 293 kts | 135° |
| 2026-05-05 13:46 | 34.59024 | 108.58375 | 9560 ft | 290 kts | 135° |
| 2026-05-05 13:47 | 34.57654 | 108.60152 | 8797 ft | 287 kts | 135° |
| 2026-05-05 13:47 | 34.56124 | 108.61633 | 8050 ft | 278 kts | 155° |
| 2026-05-05 13:47 | 34.54307 | 108.62303 | 7324 ft | 271 kts | 176° |
| 2026-05-05 13:47 | 34.52473 | 108.62107 | 6796 ft | 259 kts | 195° |
| 2026-05-05 13:48 | 34.50763 | 108.61505 | 6353 ft | 252 kts | 196° |
| 2026-05-05 13:48 | 34.49065 | 108.60890 | 6233 ft | 256 kts | 196° |
| 2026-05-05 13:48 | 34.47366 | 108.60229 | 6115 ft | 257 kts | 203° |
| 2026-05-05 13:48 | 34.45883 | 108.59080 | 6008 ft | 259 kts | 221° |
| 2026-05-05 13:49 | 34.44663 | 108.57476 | 5882 ft | 257 kts | 227° |
| 2026-05-05 13:49 | 34.43504 | 108.55890 | 5759 ft | 246 kts | 226° |
| 2026-05-05 13:49 | 34.42391 | 108.54367 | 5632 ft | 238 kts | 226° |
| 2026-05-05 13:49 | 34.41297 | 108.52874 | 5504 ft | 237 kts | 226° |
| 2026-05-05 13:50 | 34.40214 | 108.51399 | 5380 ft | 230 kts | 226° |
| 2026-05-05 13:50 | 34.39171 | 108.49980 | 5253 ft | 222 kts | 226° |
| 2026-05-05 13:50 | 34.38149 | 108.48597 | 5139 ft | 220 kts | 225° |
| 2026-05-05 13:50 | 34.37127 | 108.47215 | 4902 ft | 219 kts | 226° |
| 2026-05-05 13:51 | 34.36125 | 108.45862 | 4665 ft | 219 kts | 226° |
| 2026-05-05 13:51 | 34.35105 | 108.44496 | 4429 ft | 218 kts | 222° |
| 2026-05-05 13:51 | 34.33872 | 108.43504 | 4226 ft | 211 kts | 199° |
| 2026-05-05 13:51 | 34.32464 | 108.43204 | 4021 ft | 202 kts | 178° |
| 2026-05-05 13:52 | 34.31126 | 108.43522 | 3783 ft | 193 kts | 164° |
| 2026-05-05 13:52 | 34.29843 | 108.43948 | 3539 ft | 190 kts | 165° |
| 2026-05-05 13:52 | 34.28571 | 108.44369 | 3392 ft | 189 kts | 163° |
| 2026-05-05 13:52 | 34.27432 | 108.45123 | 3249 ft | 188 kts | 138° |
| 2026-05-05 13:53 | 34.26672 | 108.46390 | 3106 ft | 188 kts | 113° |
| 2026-05-05 13:53 | 34.26436 | 108.47931 | 2964 ft | 188 kts | 88° |
| 2026-05-05 13:53 | 34.26776 | 108.49449 | 2825 ft | 190 kts | 63° |
| 2026-05-05 13:53 | 34.27588 | 108.50706 | 2742 ft | 190 kts | 50° |
| 2026-05-05 13:54 | 34.28464 | 108.51903 | 2703 ft | 189 kts | 51° |
| 2026-05-05 13:54 | 34.29331 | 108.53090 | 2702 ft | 188 kts | 51° |
| 2026-05-05 13:54 | 34.30196 | 108.54276 | 2702 ft | 188 kts | 50° |
| 2026-05-05 13:54 | 34.31064 | 108.55466 | 2702 ft | 188 kts | 51° |
| 2026-05-05 13:55 | 34.31918 | 108.56639 | 2727 ft | 189 kts | 49° |
| 2026-05-05 13:55 | 34.32772 | 108.57810 | 2704 ft | 182 kts | 49° |
| 2026-05-05 13:55 | 34.33593 | 108.58938 | 2801 ft | 172 kts | 49° |
| 2026-05-05 13:55 | 34.34347 | 108.59974 | 2947 ft | 159 kts | 50° |
| 2026-05-05 13:56 | 34.35046 | 108.60934 | 2999 ft | 146 kts | 50° |
| 2026-05-05 13:56 | 34.35703 | 108.61838 | 2996 ft | 141 kts | 50° |
| 2026-05-05 13:56 | 34.36350 | 108.62728 | 2998 ft | 140 kts | 50° |
| 2026-05-05 13:56 | 34.36992 | 108.63611 | 3001 ft | 139 kts | 50° |
| 2026-05-05 13:57 | 34.37625 | 108.64481 | 2999 ft | 138 kts | 50° |
| 2026-05-05 13:57 | 34.38262 | 108.65358 | 2997 ft | 139 kts | 50° |
| 2026-05-05 13:57 | 34.38905 | 108.66244 | 2997 ft | 141 kts | 50° |
| 2026-05-05 13:57 | 34.39551 | 108.67133 | 2898 ft | 140 kts | 49° |
| 2026-05-05 13:58 | 34.40191 | 108.68014 | 2752 ft | 140 kts | 49° |
| 2026-05-05 13:58 | 34.40829 | 108.68893 | 2598 ft | 138 kts | 48° |
| 2026-05-05 13:58 | 34.41468 | 108.69774 | 2427 ft | 140 kts | 48° |
| 2026-05-05 13:58 | 34.42112 | 108.70661 | 2246 ft | 141 kts | 47° |
| 2026-05-05 13:59 | 34.43407 | 108.72455 | 1846 ft | 142 kts | 49° |
| 2026-05-05 13:59 | 34.44038 | 108.73334 | 1622 ft | 138 kts | 47° |
| 2026-05-05 14:00 | 34.45141 | 108.74844 | 1511 ft | 77 kts | 49° |
| 2026-05-05 14:00 | 34.45345 | 108.75121 | 1515 ft | 64 kts | 49° |
| 2026-05-05 14:00 | 34.45594 | 108.75490 | 1514 ft | 39 kts | 52° |
| 2026-05-05 14:00 | 34.45670 | 108.75734 | 1512 ft | 18 kts | 83° |
| 2026-05-05 14:01 | 34.45655 | 108.75830 | 1512 ft | 10 kts | 162° |
| 2026-05-05 14:01 | 34.45616 | 108.75817 | 1512 ft | 2 kts | 228° |
| 2026-05-05 14:01 | 34.45608 | 108.75807 | 1511 ft | 1 kts | 229° |
| 2026-05-05 14:01 | 34.45602 | 108.75798 | 1511 ft | 3 kts | 229° |
| 2026-05-05 14:02 | 34.45575 | 108.75761 | 1512 ft | 8 kts | 229° |
| 2026-05-05 14:02 | 34.45539 | 108.75711 | 1512 ft | 8 kts | 229° |
| 2026-05-05 14:02 | 34.45500 | 108.75654 | 1512 ft | 9 kts | 230° |
| 2026-05-05 14:02 | 34.45457 | 108.75592 | 1512 ft | 10 kts | 230° |
| 2026-05-05 14:03 | 34.45408 | 108.75524 | 1512 ft | 11 kts | 228° |
| 2026-05-05 14:03 | 34.45365 | 108.75466 | 1512 ft | 4 kts | 228° |
| 2026-05-05 14:03 | 34.45345 | 108.75439 | 1512 ft | 5 kts | 228° |
| 2026-05-05 14:03 | 34.45316 | 108.75415 | 1518 ft | 5 kts | 199° |
| 2026-05-05 14:04 | 34.45280 | 108.75420 | 1521 ft | 5 kts | 156° |
| 2026-05-05 14:04 | 34.45250 | 108.75450 | 1521 ft | 7 kts | 138° |
| 2026-05-05 14:04 | 34.45209 | 108.75494 | 1521 ft | 10 kts | 139° |
| 2026-05-05 14:04 | 34.45137 | 108.75570 | 1521 ft | 17 kts | 139° |
| 2026-05-05 14:05 | 34.45054 | 108.75660 | 1521 ft | 15 kts | 138° |
| 2026-05-05 14:05 | 34.44978 | 108.75742 | 1521 ft | 16 kts | 139° |
| 2026-05-05 14:05 | 34.44924 | 108.75799 | 1520 ft | 8 kts | 139° |
| 2026-05-05 14:05 | 34.44877 | 108.75842 | 1521 ft | 9 kts | 148° |
| 2026-05-05 14:06 | 34.44816 | 108.75850 | 1521 ft | 10 kts | 206° |
| 2026-05-05 14:06 | 34.44762 | 108.75784 | 1521 ft | 13 kts | 226° |
| 2026-05-05 14:06 | 34.44698 | 108.75694 | 1521 ft | 16 kts | 229° |
| 2026-05-05 14:06 | 34.44619 | 108.75588 | 1521 ft | 16 kts | 219° |
| 2026-05-05 14:07 | 34.44552 | 108.75611 | 1520 ft | 12 kts | 137° |
| 2026-05-05 14:07 | 34.44503 | 108.75679 | 1521 ft | 11 kts | 104° |
| 2026-05-05 14:07 | 34.44478 | 108.75758 | 1521 ft | 9 kts | 122° |
| 2026-05-05 14:07 | 34.44463 | 108.75785 | 1521 ft | 0 kts | 124° |